Time;durP1;ratioP1;P1;durP2;ratioP2;P2;SDS_P1;SDS_P2;PMS_P1;PMS_P2;Temp;Humidity;BMP_temperature;BMP_pressure;BME280_temperature;BME280_humidity;BME280_pressure;Samples;Min_cycle;Max_cycle;Signal;HPM_P1;HPM_P2
2022/07/12 00:02:00;;;;;;;2.40;2.20;;;15.30;99.90;;;;;;5093267;28;20181;-69
2022/07/12 00:04:27;;;;;;;2.50;2.30;;;15.30;99.90;;;;;;5094887;28;20160;-69
2022/07/12 00:06:53;;;;;;;2.30;2.20;;;15.20;99.90;;;;;;5094351;28;20261;-70
2022/07/12 00:09:18;;;;;;;2.40;2.20;;;15.20;99.90;;;;;;5093970;28;20729;-69
2022/07/12 00:11:45;;;;;;;2.92;2.30;;;15.10;99.90;;;;;;5094988;28;20630;-69
2022/07/12 00:14:11;;;;;;;2.38;2.20;;;15.00;99.90;;;;;;5094959;28;20199;-69
2022/07/12 00:16:37;;;;;;;2.45;2.22;;;14.90;99.90;;;;;;5094106;28;20690;-70
2022/07/12 00:19:04;;;;;;;3.75;2.08;;;14.80;99.90;;;;;;5093836;28;20216;-70
2022/07/12 00:21:29;;;;;;;2.10;2.00;;;14.80;99.90;;;;;;5094064;28;20181;-69
2022/07/12 00:23:55;;;;;;;2.95;2.10;;;14.80;99.90;;;;;;5094237;28;20721;-69
2022/07/12 00:26:21;;;;;;;2.10;2.00;;;14.80;99.90;;;;;;5093791;28;20207;-70
2022/07/12 00:28:47;;;;;;;2.28;2.13;;;14.80;99.90;;;;;;5094062;28;20193;-70
2022/07/12 00:31:13;;;;;;;3.33;2.30;;;14.80;99.90;;;;;;5093644;28;20322;-70
2022/07/12 00:33:39;;;;;;;2.72;2.40;;;14.80;99.90;;;;;;5094027;28;20625;-70
2022/07/12 00:36:05;;;;;;;2.53;2.33;;;14.70;99.90;;;;;;5093802;28;20165;-70
2022/07/12 00:38:31;;;;;;;2.28;2.17;;;14.70;99.90;;;;;;5094077;28;20211;-70
2022/07/12 00:40:57;;;;;;;2.50;2.30;;;14.70;99.90;;;;;;5093707;28;20189;-70
2022/07/12 00:43:22;;;;;;;2.63;2.42;;;14.60;99.90;;;;;;5093712;28;20237;-70
2022/07/12 00:45:48;;;;;;;2.53;2.28;;;14.60;99.90;;;;;;5093288;28;20380;-70
2022/07/12 00:48:17;;;;;;;2.53;2.33;;;14.60;99.90;;;;;;5092164;28;20590;-70
2022/07/12 00:50:45;;;;;;;2.63;2.40;;;14.60;99.90;;;;;;5093407;28;20742;-70
2022/07/12 00:53:12;;;;;;;2.70;2.50;;;14.60;99.90;;;;;;5093490;28;20165;-70
2022/07/12 00:55:38;;;;;;;2.20;2.10;;;14.60;99.90;;;;;;5093435;28;20638;-70
2022/07/12 00:58:03;;;;;;;3.05;2.20;;;14.50;99.90;;;;;;5092109;28;20181;-70
2022/07/12 01:00:30;;;;;;;2.50;2.30;;;14.50;99.90;;;;;;5093011;28;20681;-70
2022/07/12 01:02:57;;;;;;;2.53;2.33;;;14.40;99.90;;;;;;5092155;28;20185;-70
2022/07/12 01:05:26;;;;;;;2.63;2.42;;;14.40;99.90;;;;;;5093556;28;20181;-70
2022/07/12 01:07:54;;;;;;;2.97;2.50;;;14.40;99.90;;;;;;5091921;28;20193;-71
2022/07/12 01:10:20;;;;;;;3.50;2.72;;;14.30;99.90;;;;;;5093274;28;20216;-70
2022/07/12 01:12:46;;;;;;;2.88;2.60;;;14.30;99.90;;;;;;5093523;28;20534;-70
2022/07/12 01:15:12;;;;;;;2.53;2.25;;;14.30;99.90;;;;;;5097210;28;20177;-70
2022/07/12 01:17:39;;;;;;;2.60;2.40;;;14.20;99.90;;;;;;5096899;28;20272;-70
2022/07/12 01:20:08;;;;;;;3.70;2.50;;;14.20;99.90;;;;;;5097172;28;20228;-70
2022/07/12 01:22:36;;;;;;;2.72;2.53;;;14.20;99.90;;;;;;5097375;28;20184;-70
2022/07/12 01:25:04;;;;;;;2.40;2.20;;;14.10;99.90;;;;;;5096929;28;20225;-70
2022/07/12 01:27:30;;;;;;;2.85;2.63;;;14.10;99.90;;;;;;5097080;28;20193;-70
2022/07/12 01:29:56;;;;;;;3.10;2.72;;;14.00;99.90;;;;;;5096800;28;20189;-70
2022/07/12 01:32:26;;;;;;;3.13;2.83;;;13.90;99.90;;;;;;5096687;28;20570;-70
2022/07/12 01:34:58;;;;;;;3.35;2.75;;;13.80;99.90;;;;;;5096866;28;20170;-70
2022/07/12 01:37:25;;;;;;;3.47;2.70;;;13.90;99.90;;;;;;5096867;28;20184;-70
2022/07/12 01:39:54;;;;;;;3.13;2.83;;;13.80;99.90;;;;;;5096607;28;20197;-70
2022/07/12 01:42:21;;;;;;;3.20;2.90;;;13.80;99.90;;;;;;5096527;28;20169;-70
2022/07/12 01:44:49;;;;;;;3.03;2.80;;;13.70;99.90;;;;;;5095390;28;20181;-70
2022/07/12 01:47:15;;;;;;;2.80;2.60;;;13.70;99.90;;;;;;5096208;28;20181;-70
2022/07/12 01:49:41;;;;;;;2.90;2.70;;;13.70;99.90;;;;;;5096312;28;20670;-70
2022/07/12 01:52:07;;;;;;;2.55;2.45;;;13.70;99.90;;;;;;5096900;28;20176;-70
2022/07/12 01:54:33;;;;;;;2.90;2.60;;;13.70;99.90;;;;;;5095064;28;20173;-70
2022/07/12 01:56:59;;;;;;;2.85;2.65;;;13.60;99.90;;;;;;5096298;28;20177;-70
2022/07/12 01:59:25;;;;;;;2.75;2.55;;;13.60;99.90;;;;;;5096568;28;20197;-70
2022/07/12 02:01:51;;;;;;;2.90;2.65;;;13.60;99.90;;;;;;5096173;28;20223;-70
2022/07/12 02:04:17;;;;;;;2.92;2.65;;;13.50;99.90;;;;;;5096798;28;20177;-70
2022/07/12 02:06:44;;;;;;;3.08;2.83;;;13.50;99.90;;;;;;5096141;28;20196;-70
2022/07/12 02:09:11;;;;;;;4.10;2.80;;;13.50;99.90;;;;;;5096211;28;20283;-70
2022/07/12 02:11:37;;;;;;;3.40;3.10;;;13.50;99.90;;;;;;5094759;28;20176;-70
2022/07/12 02:14:03;;;;;;;3.55;3.25;;;13.50;99.90;;;;;;5094731;28;20184;-70
2022/07/12 02:16:29;;;;;;;4.43;3.70;;;13.50;99.90;;;;;;5095955;28;20176;-70
2022/07/12 02:18:55;;;;;;;3.72;3.42;;;13.50;99.90;;;;;;5095798;28;20225;-70
2022/07/12 02:21:21;;;;;;;3.75;3.42;;;13.50;99.90;;;;;;5095788;28;20172;-70
2022/07/12 02:23:47;;;;;;;3.80;3.40;;;13.50;99.90;;;;;;5096239;28;20177;-70
2022/07/12 02:26:12;;;;;;;4.40;4.00;;;13.50;99.90;;;;;;5095136;28;20173;-70
2022/07/12 02:28:38;;;;;;;6.50;3.50;;;13.40;99.90;;;;;;5095596;28;20201;-70
2022/07/12 02:31:05;;;;;;;4.20;3.80;;;13.40;99.90;;;;;;5095704;28;20177;-70
2022/07/12 02:33:31;;;;;;;6.97;4.43;;;13.40;99.90;;;;;;5095642;28;20169;-70
2022/07/12 02:35:57;;;;;;;4.07;3.75;;;13.30;99.90;;;;;;5095848;28;20251;-70
2022/07/12 02:38:22;;;;;;;4.22;3.22;;;13.30;99.90;;;;;;5095598;28;20177;-70
2022/07/12 02:40:54;;;;;;;6.30;3.17;;;13.20;99.90;;;;;;5095533;28;20711;-70
2022/07/12 02:43:24;;;;;;;4.50;3.03;;;13.20;99.90;;;;;;5094092;28;20177;-70
2022/07/12 02:45:56;;;;;;;3.42;2.90;;;13.10;99.90;;;;;;5095202;28;20647;-70
2022/07/12 02:48:22;;;;;;;3.05;2.55;;;13.00;99.90;;;;;;5095595;28;20238;-70
2022/07/12 02:50:48;;;;;;;3.05;2.83;;;12.90;99.90;;;;;;5095191;28;20725;-69
2022/07/12 02:53:15;;;;;;;2.67;2.47;;;13.00;99.90;;;;;;5095494;28;20244;-69
2022/07/12 02:55:41;;;;;;;3.10;2.50;;;12.90;99.90;;;;;;5095435;28;20184;-69
2022/07/12 02:58:07;;;;;;;3.28;2.60;;;12.90;99.90;;;;;;5095417;28;20532;-69
2022/07/12 03:00:33;;;;;;;2.70;2.50;;;12.90;99.90;;;;;;5093778;28;20201;-69
2022/07/12 03:02:59;;;;;;;3.30;3.00;;;12.80;99.90;;;;;;5093492;28;20201;-69
2022/07/12 03:05:25;;;;;;;4.90;3.15;;;12.80;99.90;;;;;;5093740;28;20238;-69
2022/07/12 03:07:50;;;;;;;5.05;3.78;;;12.80;99.90;;;;;;5094989;28;20189;-69
2022/07/12 03:10:16;;;;;;;3.83;3.20;;;12.80;99.90;;;;;;5095034;28;20254;-69
2022/07/12 03:12:42;;;;;;;3.65;3.35;;;12.80;99.90;;;;;;5094859;28;20230;-68
2022/07/12 03:15:08;;;;;;;3.30;3.00;;;12.70;99.90;;;;;;5095147;28;20638;-69
2022/07/12 03:17:34;;;;;;;3.40;3.10;;;12.80;99.90;;;;;;5094514;28;20551;-69
2022/07/12 03:20:00;;;;;;;3.80;3.45;;;12.80;99.90;;;;;;5094557;28;20298;-68
2022/07/12 03:22:26;;;;;;;4.68;3.72;;;12.90;99.90;;;;;;5094929;28;20169;-69
2022/07/12 03:24:52;;;;;;;3.63;3.08;;;12.80;99.90;;;;;;5094858;28;20586;-68
2022/07/12 03:27:18;;;;;;;4.93;2.95;;;12.80;99.90;;;;;;5093301;28;20595;-68
2022/07/12 03:29:44;;;;;;;3.17;2.88;;;12.80;99.90;;;;;;5093280;28;20634;-68
2022/07/12 03:32:10;;;;;;;3.47;2.78;;;12.80;99.90;;;;;;5094627;28;20200;-69
2022/07/12 03:34:36;;;;;;;5.60;4.32;;;12.80;99.90;;;;;;5095382;28;20646;-68
2022/07/12 03:37:04;;;;;;;6.00;4.38;;;12.80;99.90;;;;;;5093579;28;20256;-68
2022/07/12 03:39:30;;;;;;;7.97;5.45;;;12.80;99.90;;;;;;5094605;28;20189;-68
2022/07/12 03:41:56;;;;;;;6.88;5.35;;;12.80;99.90;;;;;;5094906;28;20222;-68
2022/07/12 03:44:22;;;;;;;6.85;5.68;;;12.90;99.90;;;;;;5094882;28;20636;-69
2022/07/12 03:46:47;;;;;;;9.57;5.32;;;12.90;99.90;;;;;;5094361;28;20294;-69
2022/07/12 03:49:15;;;;;;;6.47;5.07;;;12.90;99.90;;;;;;5095907;28;20585;-69
2022/07/12 03:51:41;;;;;;;7.82;5.07;;;12.90;99.90;;;;;;5095710;28;20161;-68
2022/07/12 03:54:07;;;;;;;8.80;5.80;;;12.90;99.90;;;;;;5095343;28;20541;-68
2022/07/12 03:59:20;;;;;;;8.82;6.05;;;12.80;99.90;;;;;;5094678;28;20299;-68
2022/07/12 04:01:46;;;;;;;7.65;5.40;;;12.70;99.90;;;;;;5094092;28;20177;-68
2022/07/12 04:04:12;;;;;;;8.93;5.75;;;12.70;99.90;;;;;;5094046;28;20177;-68
2022/07/12 04:06:38;;;;;;;8.57;6.03;;;12.60;99.90;;;;;;5094648;28;20179;-67
2022/07/12 04:09:05;;;;;;;8.93;5.85;;;12.70;99.90;;;;;;5094223;28;20705;-67
2022/07/12 04:11:32;;;;;;;7.85;5.75;;;12.70;99.90;;;;;;5092589;28;20176;-67
2022/07/12 04:13:58;;;;;;;7.53;5.68;;;12.70;99.90;;;;;;5093843;28;20214;-69
2022/07/12 04:16:24;;;;;;;8.20;5.85;;;12.80;99.90;;;;;;5093973;28;20690;-69
2022/07/12 04:18:50;;;;;;;8.35;5.57;;;12.80;99.90;;;;;;5093596;28;20793;-69
2022/07/12 04:21:16;;;;;;;7.15;5.13;;;12.90;99.90;;;;;;5092584;28;20169;-69
2022/07/12 04:23:41;;;;;;;7.32;5.70;;;12.90;99.90;;;;;;5094130;28;20177;-69
2022/07/12 04:26:07;;;;;;;6.90;5.50;;;12.90;99.90;;;;;;5093705;28;20172;-68
2022/07/12 04:28:35;;;;;;;6.03;5.22;;;13.00;99.90;;;;;;5092287;28;20570;-69
2022/07/12 04:31:01;;;;;;;7.68;5.93;;;13.00;99.90;;;;;;5092277;28;20173;-69
2022/07/12 04:33:26;;;;;;;6.90;5.38;;;13.00;99.90;;;;;;5093389;28;20173;-68
2022/07/12 04:35:52;;;;;;;5.70;4.45;;;13.00;99.90;;;;;;5092367;28;20180;-69
2022/07/12 04:38:18;;;;;;;7.05;4.32;;;13.00;99.90;;;;;;5092443;28;20173;-69
2022/07/12 04:40:43;;;;;;;6.10;4.38;;;13.00;99.90;;;;;;5093530;28;20192;-68
2022/07/12 04:43:09;;;;;;;5.10;4.47;;;13.00;99.90;;;;;;5092193;28;20177;-69
2022/07/12 04:45:35;;;;;;;8.20;4.85;;;13.00;99.90;;;;;;5093403;28;20549;-68
2022/07/12 04:48:00;;;;;;;5.88;4.32;;;13.00;99.90;;;;;;5093860;28;20669;-68
2022/07/12 04:50:26;;;;;;;4.93;4.13;;;13.00;99.90;;;;;;5097856;28;20197;-68
2022/07/12 04:52:52;;;;;;;4.43;4.00;;;13.10;99.90;;;;;;5096345;28;20172;-68
2022/07/12 04:55:18;;;;;;;5.43;4.03;;;13.20;99.90;;;;;;5097546;28;20256;-68
2022/07/12 04:57:44;;;;;;;4.20;3.80;;;13.20;99.90;;;;;;5097422;28;20699;-68
2022/07/12 05:00:10;;;;;;;4.72;3.95;;;13.20;99.90;;;;;;5097591;28;20227;-68
2022/07/12 05:02:36;;;;;;;3.78;3.40;;;13.30;99.90;;;;;;5097492;28;20177;-69
2022/07/12 05:05:03;;;;;;;4.25;3.85;;;13.30;99.90;;;;;;5098029;28;20173;-68
2022/07/12 05:07:28;;;;;;;4.20;3.80;;;13.40;99.90;;;;;;5097207;28;20723;-68
2022/07/12 05:09:55;;;;;;;4.80;4.10;;;13.40;99.90;;;;;;5097153;28;20326;-68
2022/07/12 05:12:20;;;;;;;3.78;3.47;;;13.50;99.90;;;;;;5097631;28;20525;-68
2022/07/12 05:14:46;;;;;;;4.00;3.70;;;13.60;99.90;;;;;;5097308;28;20173;-68
2022/07/12 05:17:12;;;;;;;4.80;3.90;;;13.60;99.90;;;;;;5096651;28;20691;-68
2022/07/12 05:19:38;;;;;;;4.38;3.80;;;13.70;99.90;;;;;;5097150;28;20192;-68
2022/07/12 05:22:04;;;;;;;6.22;4.13;;;13.70;99.90;;;;;;5097407;28;20180;-69
2022/07/12 05:24:30;;;;;;;5.90;3.97;;;13.80;99.90;;;;;;5097021;28;20177;-69
2022/07/12 05:26:55;;;;;;;4.65;3.90;;;13.80;99.90;;;;;;5095549;28;20169;-68
2022/07/12 05:29:21;;;;;;;4.30;3.90;;;13.90;99.90;;;;;;5096626;28;20209;-68
2022/07/12 05:31:47;;;;;;;5.95;3.83;;;14.00;99.90;;;;;;5095262;28;20177;-69
2022/07/12 05:34:13;;;;;;;6.18;4.30;;;14.00;99.90;;;;;;5095445;28;20177;-68
2022/07/12 05:36:39;;;;;;;4.63;4.15;;;14.10;99.90;;;;;;5095399;28;20219;-68
2022/07/12 05:39:05;;;;;;;5.70;4.47;;;14.20;99.90;;;;;;5096761;28;20562;-69
2022/07/12 05:41:31;;;;;;;6.07;4.78;;;14.30;99.90;;;;;;5095270;28;20173;-68
2022/07/12 05:43:56;;;;;;;5.30;4.47;;;14.40;99.90;;;;;;5096358;28;20173;-68
2022/07/12 05:46:22;;;;;;;6.25;4.70;;;14.50;99.90;;;;;;5096246;28;20173;-70
2022/07/12 05:48:48;;;;;;;8.38;5.38;;;14.50;99.90;;;;;;5096796;28;20198;-68
2022/07/12 05:54:18;;;;;;;6.43;4.30;;;14.70;99.90;;;;;;5094255;28;20204;-69
2022/07/12 05:56:43;;;;;;;5.72;4.20;;;14.80;99.90;;;;;;5094249;28;20209;-69
2022/07/12 05:59:09;;;;;;;8.77;4.28;;;14.90;99.90;;;;;;5094749;28;20209;-69
2022/07/12 06:01:35;;;;;;;6.80;5.32;;;15.00;99.90;;;;;;5095201;28;20165;-69
2022/07/12 06:04:01;;;;;;;4.47;4.07;;;15.10;99.90;;;;;;5096328;28;20649;-69
2022/07/12 06:06:27;;;;;;;8.98;4.57;;;15.20;99.90;;;;;;5096144;28;20213;-69
2022/07/12 06:08:53;;;;;;;5.18;4.65;;;15.30;99.90;;;;;;5094779;28;20221;-69
2022/07/12 06:11:19;;;;;;;5.13;4.60;;;15.40;99.90;;;;;;5095303;28;20165;-69
2022/07/12 06:13:45;;;;;;;6.07;5.28;;;15.50;99.90;;;;;;5097108;28;20174;-68
2022/07/12 06:16:11;;;;;;;6.47;4.70;;;15.60;99.90;;;;;;5095594;28;20192;-69
2022/07/12 06:18:37;;;;;;;6.00;4.70;;;15.70;99.90;;;;;;5094648;28;20245;-69
2022/07/12 06:21:03;;;;;;;5.78;4.22;;;15.80;99.90;;;;;;5094740;28;20184;-69
2022/07/12 06:23:30;;;;;;;4.90;4.40;;;15.90;99.90;;;;;;5096044;28;20688;-68
2022/07/12 06:25:56;;;;;;;6.07;5.38;;;16.00;99.90;;;;;;5096322;28;20181;-67
2022/07/12 06:28:22;;;;;;;6.00;4.90;;;16.10;99.90;;;;;;5096624;28;20193;-67
2022/07/12 06:30:48;;;;;;;5.80;4.93;;;16.20;99.90;;;;;;5094442;28;20189;-68
2022/07/12 06:33:14;;;;;;;5.68;4.90;;;16.20;99.90;;;;;;5097392;28;20574;-67
2022/07/12 06:35:39;;;;;;;5.30;4.63;;;16.40;99.90;;;;;;5097676;28;20173;-69
2022/07/12 06:38:05;;;;;;;5.50;4.57;;;16.40;99.90;;;;;;5096188;28;20672;-69
2022/07/12 06:40:31;;;;;;;7.53;4.88;;;16.50;99.90;;;;;;5095368;28;20189;-69
2022/07/12 06:42:57;;;;;;;5.63;4.63;;;16.70;99.90;;;;;;5096068;28;20169;-68
2022/07/12 06:45:24;;;;;;;5.70;4.63;;;16.70;99.90;;;;;;5095916;28;20161;-68
2022/07/12 06:47:51;;;;;;;6.28;4.38;;;16.80;99.90;;;;;;5093706;28;20306;-68
2022/07/12 06:50:17;;;;;;;4.47;3.90;;;17.00;99.90;;;;;;5095275;28;20204;-68
2022/07/12 06:52:42;;;;;;;6.30;4.68;;;17.00;99.90;;;;;;5094548;28;20169;-69
2022/07/12 06:55:09;;;;;;;8.35;5.30;;;17.10;99.90;;;;;;5095428;28;20215;-68
2022/07/12 06:57:35;;;;;;;7.00;4.43;;;17.20;99.90;;;;;;5095180;28;20188;-69
2022/07/12 07:00:02;;;;;;;5.55;4.72;;;17.30;99.90;;;;;;5094650;28;20193;-68
2022/07/12 07:02:27;;;;;;;5.70;4.95;;;17.40;99.90;;;;;;5095849;28;20634;-68
2022/07/12 07:04:53;;;;;;;7.18;4.75;;;17.50;99.90;;;;;;5096266;28;20183;-68
2022/07/12 07:07:19;;;;;;;8.13;4.57;;;17.60;99.90;;;;;;5096495;28;20215;-69
2022/07/12 07:09:45;;;;;;;7.82;5.38;;;17.70;99.90;;;;;;5095619;28;20222;-70
2022/07/12 07:12:11;;;;;;;5.93;5.03;;;17.80;99.90;;;;;;5094585;28;20695;-69
2022/07/12 07:14:37;;;;;;;6.72;4.60;;;17.80;99.90;;;;;;5096786;28;20633;-69
2022/07/12 07:17:05;;;;;;;5.82;4.25;;;17.90;99.90;;;;;;5096421;28;20260;-70
2022/07/12 07:19:30;;;;;;;5.70;3.70;;;18.00;99.90;;;;;;5095173;28;20695;-69
2022/07/12 07:21:58;;;;;;;4.43;3.70;;;18.10;99.90;;;;;;5094878;28;20200;-69
2022/07/12 07:24:24;;;;;;;5.03;4.53;;;18.20;99.90;;;;;;5095016;28;20532;-69
2022/07/12 07:26:50;;;;;;;6.15;3.70;;;18.40;99.90;;;;;;5094474;28;20267;-69
2022/07/12 07:32:00;;;;;;;7.15;3.60;;;18.70;99.90;;;;;;5094577;28;20687;-69
2022/07/12 07:34:26;;;;;;;3.95;3.60;;;18.80;99.90;;;;;;5094418;28;20685;-69
2022/07/12 07:36:52;;;;;;;4.65;3.80;;;18.90;99.90;;;;;;5093133;28;20177;-69
2022/07/12 07:39:18;;;;;;;6.28;3.40;;;19.00;99.90;;;;;;5094293;28;20199;-69
2022/07/12 07:41:44;;;;;;;3.45;2.97;;;19.10;99.90;;;;;;5094615;28;20210;-69
2022/07/12 07:44:10;;;;;;;4.85;3.67;;;19.10;99.90;;;;;;5094303;28;20589;-69
2022/07/12 07:46:36;;;;;;;3.88;3.53;;;19.20;99.90;;;;;;5094570;28;20541;-69
2022/07/12 07:49:03;;;;;;;5.57;3.63;;;19.30;99.90;;;;;;5093797;28;20212;-69
2022/07/12 07:51:29;;;;;;;3.97;3.20;;;19.40;99.90;;;;;;5094302;28;20173;-69
2022/07/12 07:53:55;;;;;;;3.67;3.38;;;19.60;99.90;;;;;;5092893;28;20242;-70
2022/07/12 07:56:21;;;;;;;4.43;3.00;;;19.70;99.90;;;;;;5093059;28;20182;-69
2022/07/12 07:58:47;;;;;;;2.97;2.70;;;19.70;99.90;;;;;;5092723;28;20646;-69
2022/07/12 08:01:12;;;;;;;3.60;3.30;;;19.80;99.90;;;;;;5094654;28;20165;-69
2022/07/12 08:03:39;;;;;;;3.22;2.92;;;19.90;99.90;;;;;;5093897;28;20181;-69
2022/07/12 08:06:05;;;;;;;3.30;3.00;;;19.90;99.90;;;;;;5094283;28;20632;-69
2022/07/12 08:08:31;;;;;;;5.47;4.22;;;20.00;99.90;;;;;;5093992;28;20201;-69
2022/07/12 08:10:57;;;;;;;4.95;3.70;;;20.00;99.90;;;;;;5094501;28;20185;-69
2022/07/12 08:13:23;;;;;;;4.82;3.10;;;20.00;99.90;;;;;;5092664;28;20177;-69
2022/07/12 08:15:49;;;;;;;3.28;2.88;;;20.10;99.90;;;;;;5094438;28;20153;-69
2022/07/12 08:18:15;;;;;;;3.03;2.78;;;20.20;99.90;;;;;;5093602;28;20220;-69
2022/07/12 08:20:41;;;;;;;2.50;2.30;;;20.30;99.90;;;;;;5092523;28;20213;-69
2022/07/12 08:23:08;;;;;;;2.80;2.53;;;20.30;99.90;;;;;;5093571;28;20192;-69
2022/07/12 08:25:34;;;;;;;2.55;2.35;;;20.40;99.90;;;;;;5094022;28;20165;-69
2022/07/12 08:28:00;;;;;;;4.18;2.58;;;20.50;99.90;;;;;;5093670;28;20555;-69
2022/07/12 08:30:26;;;;;;;2.20;2.00;;;20.50;99.90;;;;;;5093573;28;20189;-69
2022/07/12 08:32:52;;;;;;;2.17;2.03;;;20.50;99.90;;;;;;5093431;28;20637;-69
2022/07/12 08:35:18;;;;;;;2.85;2.47;;;20.60;99.90;;;;;;5092348;28;20173;-69
2022/07/12 08:37:44;;;;;;;3.42;2.70;;;20.80;99.90;;;;;;5093585;28;20218;-69
2022/07/12 08:40:10;;;;;;;2.83;2.63;;;20.80;99.90;;;;;;5093672;28;20700;-69
2022/07/12 08:42:40;;;;;;;3.30;2.42;;;20.90;99.90;;;;;;5093532;28;20196;-69
2022/07/12 08:45:06;;;;;;;3.03;2.75;;;21.00;99.90;;;;;;5093586;28;20184;-69
2022/07/12 08:47:31;;;;;;;3.30;2.80;;;21.10;99.90;;;;;;5093145;28;20226;-69
2022/07/12 08:50:22;;;;;;;2.88;2.33;;;21.10;99.90;;;;;;5093373;28;20590;-69
2022/07/12 08:52:51;;;;;;;2.58;2.38;;;21.20;99.90;;;;;;5093626;28;20158;-69
2022/07/12 08:55:24;;;;;;;3.67;2.25;;;21.30;99.90;;;;;;5092132;28;20173;-69
2022/07/12 08:57:52;;;;;;;2.80;2.20;;;21.40;99.90;;;;;;5092110;28;20229;-69
2022/07/12 09:00:19;;;;;;;2.58;2.00;;;21.60;99.90;;;;;;5093449;28;20204;-69
2022/07/12 09:02:56;;;;;;;2.55;2.00;;;21.60;99.90;;;;;;5093375;28;20173;-69
2022/07/12 09:05:27;;;;;;;3.45;2.22;;;21.80;99.90;;;;;;5092115;28;20183;-69
2022/07/12 09:08:08;;;;;;;2.08;1.98;;;21.80;99.90;;;;;;5091926;28;20197;-69
2022/07/12 09:10:52;;;;;;;3.92;2.20;;;21.90;99.90;;;;;;5092039;28;20204;-69
2022/07/12 09:13:18;;;;;;;2.50;2.30;;;22.10;99.90;;;;;;5093579;28;20207;-69
2022/07/12 09:15:46;;;;;;;2.05;1.90;;;22.30;99.90;;;;;;5091957;28;20268;-69
2022/07/12 09:18:17;;;;;;;2.08;1.73;;;22.40;99.90;;;;;;5092992;28;20223;-69
2022/07/12 09:20:50;;;;;;;2.75;2.55;;;22.60;99.90;;;;;;5093131;28;20250;-69
2022/07/12 09:23:17;;;;;;;2.15;1.50;;;22.80;99.90;;;;;;5093602;28;20161;-69
2022/07/12 09:25:46;;;;;;;1.70;1.60;;;22.90;99.90;;;;;;5094294;28;20523;-69
2022/07/12 09:28:12;;;;;;;2.53;1.95;;;23.20;99.90;;;;;;5094282;28;20198;-70
2022/07/12 09:30:48;;;;;;;2.10;1.95;;;23.50;99.90;;;;;;5092456;28;20220;-70
2022/07/12 09:36:06;;;;;;;2.03;1.63;;;23.90;99.90;;;;;;5097472;28;20177;-69
2022/07/12 09:38:33;;;;;;;1.33;1.30;;;24.20;99.90;;;;;;5095961;28;20184;-69
2022/07/12 09:41:00;;;;;;;1.25;1.25;;;24.30;99.90;;;;;;5097782;28;20198;-69
2022/07/12 09:43:27;;;;;;;1.50;1.40;;;24.50;99.90;;;;;;5096961;28;20176;-69
2022/07/12 09:45:53;;;;;;;2.72;1.50;;;24.40;99.90;;;;;;5096725;28;20173;-70
2022/07/12 09:48:23;;;;;;;1.35;1.25;;;24.40;99.90;;;;;;5095055;28;20193;-69
2022/07/12 09:50:50;;;;;;;1.77;1.30;;;24.50;99.90;;;;;;5097343;28;20217;-70
2022/07/12 09:53:43;;;;;;;1.67;1.50;;;24.70;99.90;;;;;;5096442;28;20605;-70
2022/07/12 09:56:12;;;;;;;1.20;1.10;;;24.60;99.90;;;;;;5087330;28;20213;-70
2022/07/12 09:58:57;;;;;;;1.33;1.23;;;24.60;99.90;;;;;;5095078;28;20169;-70
2022/07/12 10:01:24;;;;;;;1.05;1.05;;;24.70;99.90;;;;;;5096343;28;20157;-70
2022/07/12 10:03:52;;;;;;;2.20;1.23;;;24.90;99.90;;;;;;5096149;28;20256;-70
2022/07/12 10:06:28;;;;;;;2.17;1.30;;;24.90;99.90;;;;;;5096747;28;20192;-70
2022/07/12 10:08:55;;;;;;;1.30;1.20;;;24.90;99.90;;;;;;5094806;28;20189;-70
2022/07/12 10:11:24;;;;;;;2.55;1.25;;;25.00;99.90;;;;;;5096406;28;20173;-70
2022/07/12 10:13:52;;;;;;;2.28;1.33;;;25.00;99.90;;;;;;5095102;28;20544;-70
2022/07/12 10:16:26;;;;;;;1.15;1.15;;;25.00;99.90;;;;;;5096132;28;20191;-70
2022/07/12 10:19:20;;;;;;;2.22;1.20;;;25.00;99.90;;;;;;5098844;28;20233;-70
2022/07/12 10:21:48;;;;;;;1.45;1.35;;;25.00;99.90;;;;;;5116492;28;20168;-70
2022/07/12 10:24:32;;;;;;;4.32;1.50;;;24.90;99.90;;;;;;5116113;28;20544;-70
2022/07/12 10:27:14;;;;;;;3.85;1.42;;;25.00;99.90;;;;;;5116446;28;20206;-70
2022/07/12 10:29:47;;;;;;;1.27;1.17;;;25.00;99.90;;;;;;5116020;28;20574;-70
2022/07/12 10:32:25;;;;;;;1.38;1.27;;;25.20;99.90;;;;;;5116005;28;20153;-70
2022/07/12 10:35:11;;;;;;;1.10;1.10;;;25.40;99.90;;;;;;5116107;28;20156;-70
2022/07/12 10:37:37;;;;;;;1.90;1.20;;;25.60;99.90;;;;;;5116336;28;20613;-70
2022/07/12 10:40:18;;;;;;;1.20;1.20;;;25.90;99.90;;;;;;5114714;28;20283;-70
2022/07/12 10:43:04;;;;;;;4.18;1.30;;;26.00;99.90;;;;;;5115929;28;20708;-70
2022/07/12 10:45:36;;;;;;;1.30;1.20;;;26.20;99.90;;;;;;5114296;28;20184;-70
2022/07/12 10:48:05;;;;;;;4.10;1.10;;;26.30;99.90;;;;;;5115346;28;20203;-70
2022/07/12 10:50:44;;;;;;;1.85;1.30;;;26.30;99.90;;;;;;5115617;28;20214;-70
2022/07/12 10:53:20;;;;;;;1.08;1.00;;;26.20;99.90;;;;;;5115692;28;20153;-70
2022/07/12 10:56:15;;;;;;;5.47;1.30;;;26.30;99.90;;;;;;5114264;28;20172;-70
2022/07/12 10:58:44;;;;;;;3.22;1.20;;;26.30;99.90;;;;;;5114234;28;20306;-70
2022/07/12 11:01:12;;;;;;;1.40;1.30;;;26.40;99.90;;;;;;5114243;28;20188;-70
2022/07/12 11:03:51;;;;;;;1.17;1.05;;;26.50;99.90;;;;;;5114102;28;20181;-70
2022/07/12 11:06:20;;;;;;;1.58;1.20;;;26.40;99.90;;;;;;5115732;28;20165;-69
2022/07/12 11:08:49;;;;;;;4.05;1.30;;;26.20;99.90;;;;;;5116569;28;20743;-70
2022/07/12 11:11:15;;;;;;;4.13;1.10;;;26.00;99.90;;;;;;5114058;28;20166;-70
2022/07/12 11:13:41;;;;;;;1.00;1.00;;;26.00;99.90;;;;;;5115344;28;20543;-71
2022/07/12 11:16:07;;;;;;;2.47;1.08;;;26.10;99.90;;;;;;5115540;28;20165;-70
2022/07/12 11:18:34;;;;;;;2.15;1.10;;;26.10;99.90;;;;;;5114917;28;20300;-70
2022/07/12 11:21:01;;;;;;;1.02;1.02;;;26.30;99.90;;;;;;5115196;28;20200;-70
2022/07/12 11:23:28;;;;;;;1.83;1.10;;;26.30;99.90;;;;;;5116513;28;20186;-71
2022/07/12 11:25:59;;;;;;;1.92;1.05;;;26.30;99.90;;;;;;5115736;28;20168;-70
2022/07/12 11:28:30;;;;;;;0.80;0.80;;;26.50;99.90;;;;;;5113958;28;20239;-71
2022/07/12 11:31:17;;;;;;;0.93;0.93;;;26.70;99.90;;;;;;5115756;28;20605;-69
2022/07/12 11:33:47;;;;;;;0.90;0.90;;;27.00;99.90;;;;;;5115343;28;20164;-70
2022/07/12 11:36:14;;;;;;;1.05;0.98;;;27.30;99.90;;;;;;5113497;28;20168;-70
2022/07/12 11:38:42;;;;;;;2.13;1.08;;;27.40;99.90;;;;;;5113770;28;20176;-69
2022/07/12 11:41:10;;;;;;;2.85;1.10;;;27.50;99.90;;;;;;5115391;28;20177;-69
2022/07/12 11:43:37;;;;;;;4.18;1.20;;;27.50;99.90;;;;;;5116768;28;20187;-69
2022/07/12 11:46:05;;;;;;;0.88;0.88;;;27.40;99.90;;;;;;5115228;28;20168;-69
2022/07/12 11:48:32;;;;;;;1.20;1.10;;;27.70;99.90;;;;;;5115312;28;20189;-69
2022/07/12 11:51:03;;;;;;;1.08;0.80;;;27.80;99.90;;;;;;5114943;28;20223;-69
2022/07/12 11:53:30;;;;;;;1.10;1.00;;;28.00;99.90;;;;;;5115471;28;20164;-69
2022/07/12 11:55:58;;;;;;;1.80;1.00;;;28.40;99.90;;;;;;5114118;28;20221;-69
2022/07/12 11:58:26;;;;;;;1.90;0.95;;;28.10;99.90;;;;;;5112977;28;20184;-70
2022/07/12 12:00:53;;;;;;;1.88;1.20;;;28.20;99.90;;;;;;5115384;28;20188;-70
2022/07/12 12:03:22;;;;;;;0.98;0.90;;;28.00;99.90;;;;;;5114769;28;20202;-70
2022/07/12 12:05:49;;;;;;;1.20;1.10;;;28.00;99.90;;;;;;5114297;28;20172;-70
2022/07/12 12:08:16;;;;;;;5.43;1.10;;;28.30;99.90;;;;;;5114163;28;20188;-70
2022/07/12 12:10:43;;;;;;;3.30;0.90;;;28.60;99.90;;;;;;5114314;28;20195;-70
2022/07/12 12:13:16;;;;;;;2.22;1.20;;;29.00;99.90;;;;;;5113048;28;20168;-70
2022/07/12 12:15:53;;;;;;;1.20;1.00;;;29.20;99.90;;;;;;5114230;28;20164;-70
2022/07/12 12:18:38;;;;;;;2.08;0.90;;;29.30;99.90;;;;;;5113933;28;20188;-70
2022/07/12 12:21:09;;;;;;;0.85;0.85;;;29.40;99.90;;;;;;5114590;28;20231;-70
2022/07/12 12:23:36;;;;;;;1.02;0.93;;;29.60;99.90;;;;;;5114663;28;20176;-70
2022/07/12 12:26:30;;;;;;;1.10;1.00;;;29.90;99.90;;;;;;5114051;28;20237;-70
2022/07/12 12:28:56;;;;;;;1.10;1.05;;;30.30;99.90;;;;;;5112647;27;20227;-70
2022/07/12 12:31:23;;;;;;;1.25;1.10;;;30.20;99.90;;;;;;5114123;28;20222;-70
2022/07/12 12:33:56;;;;;;;1.15;1.08;;;30.20;99.90;;;;;;5113932;28;20203;-71
2022/07/12 12:36:27;;;;;;;1.33;1.13;;;30.50;99.90;;;;;;5112755;28;20192;-70
2022/07/12 12:38:58;;;;;;;3.92;1.50;;;30.60;99.90;;;;;;5114531;28;20206;-71
2022/07/12 12:41:26;;;;;;;1.30;1.20;;;30.10;99.90;;;;;;5114581;28;20157;-70
2022/07/12 12:43:58;;;;;;;1.15;1.00;;;30.50;99.90;;;;;;5114527;28;20169;-70
2022/07/12 12:46:46;;;;;;;2.33;1.40;;;31.10;99.90;;;;;;5114095;28;20183;-70
2022/07/12 12:49:12;;;;;;;1.60;1.40;;;31.00;99.90;;;;;;5113462;28;20261;-70
2022/07/12 12:52:00;;;;;;;1.20;1.10;;;31.00;99.90;;;;;;5114277;28;20157;-70
2022/07/12 12:54:38;;;;;;;2.65;1.20;;;30.90;99.90;;;;;;5113968;28;20149;-70
2022/07/12 12:57:05;;;;;;;1.52;1.10;;;30.90;99.90;;;;;;5114319;28;20156;-70
2022/07/12 12:59:31;;;;;;;1.83;1.42;;;31.00;99.90;;;;;;5113593;28;20550;-70
2022/07/12 13:01:57;;;;;;;2.22;1.45;;;31.10;99.90;;;;;;5112372;28;20271;-70
2022/07/12 13:04:26;;;;;;;1.40;1.30;;;30.70;99.90;;;;;;5113445;28;20588;-71